Time;durP1;ratioP1;P1;durP2;ratioP2;P2;SDS_P1;SDS_P2;PMS_P1;PMS_P2;Temp;Humidity;BMP_temperature;BMP_pressure;BME280_temperature;BME280_humidity;BME280_pressure;Samples;Min_cycle;Max_cycle;Signal;HPM_P1;HPM_P2
2022/02/20 00:00:36;;;;;;;8.45;1.55;;;7.70;99.90;;;;;;5015438;28;20060;-80
2022/02/20 00:03:02;;;;;;;11.75;2.53;;;7.70;99.90;;;;;;5000327;28;20025;-82
2022/02/20 00:05:28;;;;;;;9.00;1.48;;;8.90;99.90;;;;;;4999032;28;20026;-78
2022/02/20 00:07:53;;;;;;;5.72;1.85;;;7.60;99.90;;;;;;4995136;28;20093;-82
2022/02/20 00:10:19;;;;;;;4.97;1.40;;;7.60;99.90;;;;;;4999545;28;20034;-82
2022/02/20 00:12:45;;;;;;;5.38;1.60;;;8.60;99.90;;;;;;4999920;28;20494;-81
2022/02/20 00:15:10;;;;;;;7.07;1.60;;;7.50;99.90;;;;;;4999606;28;20034;-80
2022/02/20 00:17:36;;;;;;;8.68;1.42;;;7.40;99.90;;;;;;5015630;28;20028;-79
2022/02/20 00:20:02;;;;;;;8.13;1.50;;;7.40;99.90;;;;;;5001723;28;20117;-78
2022/02/20 00:22:28;;;;;;;13.18;1.80;;;7.40;99.90;;;;;;5020231;28;20026;-80
2022/02/20 00:24:56;;;;;;;6.95;1.63;;;7.40;99.90;;;;;;5018012;28;20079;-80
2022/02/20 00:27:23;;;;;;;4.90;1.30;;;7.40;99.90;;;;;;4996913;28;20033;-78
2022/02/20 00:29:48;;;;;;;5.55;1.45;;;7.40;99.90;;;;;;4997995;28;20036;-79
2022/02/20 00:32:14;;;;;;;6.68;1.30;;;7.40;99.90;;;;;;5001171;28;20113;-82
2022/02/20 00:34:39;;;;;;;7.35;1.92;;;7.40;99.90;;;;;;5014632;28;20061;-78
2022/02/20 00:37:05;;;;;;;3.72;1.00;;;7.50;99.90;;;;;;4999874;28;20018;-78
2022/02/20 00:39:31;;;;;;;7.45;1.60;;;7.50;99.90;;;;;;5015038;28;20421;-80
2022/02/20 00:41:57;;;;;;;4.07;1.40;;;7.50;99.90;;;;;;5014575;28;20026;-80
2022/02/20 00:44:23;;;;;;;8.25;1.35;;;7.40;99.90;;;;;;5002833;28;20033;-80
2022/02/20 00:46:49;;;;;;;10.85;2.15;;;7.40;99.90;;;;;;5017682;28;20026;-80
2022/02/20 00:49:14;;;;;;;5.80;1.10;;;7.40;99.90;;;;;;5018856;28;20387;-79
2022/02/20 00:51:40;;;;;;;4.88;1.33;;;7.20;99.90;;;;;;5019769;28;20155;-81
2022/02/20 00:54:09;;;;;;;5.60;1.20;;;7.60;99.90;;;;;;5004911;28;20517;-80
2022/02/20 00:56:36;;;;;;;5.57;1.40;;;8.90;99.90;;;;;;5002186;28;20022;-80
2022/02/20 00:59:05;;;;;;;5.95;1.17;;;7.40;99.90;;;;;;5001095;28;20029;-80
2022/02/20 01:01:32;;;;;;;4.03;1.58;;;7.60;99.90;;;;;;4998919;28;20566;-80
2022/02/20 01:03:58;;;;;;;6.55;1.45;;;7.50;99.90;;;;;;5016149;28;20054;-82
2022/02/20 01:06:23;;;;;;;4.95;1.25;;;7.50;99.90;;;;;;5015702;28;20096;-80
2022/02/20 01:08:50;;;;;;;5.00;1.25;;;7.40;99.90;;;;;;5016687;28;20030;-81
2022/02/20 01:11:16;;;;;;;6.25;1.30;;;;;;;;;;4996397;28;20021;-81
2022/02/20 01:13:43;;;;;;;5.32;1.40;;;7.40;99.90;;;;;;5011799;28;20488;-80
2022/02/20 01:16:09;;;;;;;5.43;1.50;;;7.90;99.90;;;;;;5019155;28;20121;-81
2022/02/20 01:18:35;;;;;;;4.28;1.23;;;7.50;99.90;;;;;;5002585;28;20025;-82
2022/02/20 01:21:01;;;;;;;8.55;1.88;;;7.50;99.90;;;;;;5026537;28;20036;-81
2022/02/20 01:23:27;;;;;;;7.85;1.38;;;7.50;99.90;;;;;;5011216;28;20112;-82
2022/02/20 01:25:56;;;;;;;4.43;1.30;;;7.40;99.90;;;;;;5003960;28;20032;-83
2022/02/20 01:28:21;;;;;;;5.07;1.23;;;7.60;99.90;;;;;;5001260;28;20025;-82
2022/02/20 01:30:47;;;;;;;3.53;1.00;;;8.40;99.90;;;;;;4990252;28;20034;-81
2022/02/20 01:33:13;;;;;;;5.50;1.23;;;8.00;99.90;;;;;;5006782;28;20112;-82
2022/02/20 01:35:39;;;;;;;5.80;1.55;;;7.60;99.90;;;;;;5000093;28;20029;-80
2022/02/20 01:38:04;;;;;;;4.57;1.23;;;7.60;99.90;;;;;;5022547;28;20025;-80
2022/02/20 01:40:30;;;;;;;3.50;1.55;;;7.60;99.90;;;;;;5004857;28;20026;-84
2022/02/20 01:42:57;;;;;;;3.22;1.13;;;7.50;99.90;;;;;;5023842;28;20132;-80
2022/02/20 01:45:26;;;;;;;6.05;1.40;;;9.00;99.90;;;;;;4982431;28;20495;-81
2022/02/20 01:47:52;;;;;;;6.88;1.40;;;7.60;99.90;;;;;;5014688;28;20753;-78
2022/02/20 01:50:19;;;;;;;4.68;1.85;;;7.50;99.90;;;;;;4999901;28;20034;-81
2022/02/20 01:52:45;;;;;;;6.05;1.48;;;7.80;99.90;;;;;;5002976;28;20426;-81
2022/02/20 01:55:12;;;;;;;10.00;2.75;;;7.50;99.90;;;;;;5015013;28;20515;-84
2022/02/20 01:57:40;;;;;;;6.97;2.10;;;7.40;99.90;;;;;;5005701;28;20025;-79
2022/02/20 02:00:13;;;;;;;5.88;1.60;;;7.40;99.90;;;;;;5017345;28;20387;-80
2022/02/20 02:02:41;;;;;;;4.63;1.38;;;7.40;99.90;;;;;;5016137;28;20373;-81
2022/02/20 02:05:08;;;;;;;3.50;1.05;;;7.40;99.90;;;;;;5001348;28;20092;-81
2022/02/20 02:07:34;;;;;;;9.73;2.55;;;7.50;99.90;;;;;;5000571;28;20030;-81
2022/02/20 02:09:59;;;;;;;7.97;1.98;;;7.60;99.90;;;;;;5000970;28;20076;-81
2022/02/20 02:12:25;;;;;;;4.68;1.42;;;;;;;;;;5002332;28;20022;-79
2022/02/20 02:15:09;;;;;;;4.70;1.10;;;7.50;99.90;;;;;;5017411;28;20949;-81
2022/02/20 02:17:35;;;;;;;5.07;1.38;;;7.60;99.90;;;;;;5004723;28;20026;-81
2022/02/20 02:20:02;;;;;;;6.93;1.73;;;7.50;99.90;;;;;;5000423;28;20029;-81
2022/02/20 02:22:29;;;;;;;6.47;1.40;;;7.50;99.90;;;;;;5001385;28;20061;-80
2022/02/20 02:24:56;;;;;;;8.60;2.28;;;7.50;99.90;;;;;;5007561;28;20025;-82
2022/02/20 02:27:22;;;;;;;3.50;1.05;;;7.50;99.90;;;;;;5006044;28;20037;-83
2022/02/20 02:29:49;;;;;;;5.35;1.52;;;7.50;99.90;;;;;;4997168;28;20189;-81
2022/02/20 02:32:17;;;;;;;7.35;1.45;;;;;;;;;;5008567;28;20026;-85
2022/02/20 02:34:44;;;;;;;8.65;1.88;;;7.40;99.90;;;;;;5001706;28;20034;-82
2022/02/20 02:37:10;;;;;;;4.05;1.23;;;7.30;99.90;;;;;;5000936;28;20379;-83
2022/02/20 02:39:37;;;;;;;5.57;2.05;;;7.30;99.90;;;;;;4996968;28;20029;-82
2022/02/20 02:42:03;;;;;;;6.85;2.20;;;7.30;99.90;;;;;;5017744;28;20021;-81
2022/02/20 02:44:32;;;;;;;7.22;1.30;;;7.20;99.90;;;;;;5001176;28;20052;-84
2022/02/20 02:46:58;;;;;;;9.80;2.20;;;;;;;;;;4996056;28;20038;-82
2022/02/20 02:49:24;;;;;;;7.30;1.50;;;;;;;;;;5015770;28;20029;-80
2022/02/20 02:51:50;;;;;;;4.65;1.60;;;7.40;99.90;;;;;;4994368;28;20033;-81
2022/02/20 02:54:22;;;;;;;5.95;1.67;;;8.50;99.90;;;;;;5008222;28;20038;-86
2022/02/20 02:56:49;;;;;;;7.15;1.50;;;7.40;99.90;;;;;;4994346;28;22271;-82
2022/02/20 02:59:15;;;;;;;8.45;1.42;;;7.40;99.90;;;;;;5012620;28;20084;-84
2022/02/20 03:01:44;;;;;;;4.75;1.30;;;7.50;99.90;;;;;;5004515;28;20117;-83
2022/02/20 03:04:10;;;;;;;4.40;1.13;;;7.40;99.90;;;;;;4997834;28;20117;-84
2022/02/20 03:06:36;;;;;;;4.35;1.70;;;7.40;99.90;;;;;;4997422;28;20464;-81
2022/02/20 03:09:03;;;;;;;4.50;1.70;;;7.40;99.90;;;;;;5009045;28;20045;-84
2022/02/20 03:11:29;;;;;;;3.22;1.50;;;8.80;99.90;;;;;;4999152;28;20073;-81
2022/02/20 03:13:54;;;;;;;6.93;1.60;;;7.30;99.90;;;;;;4997089;28;20147;-81
2022/02/20 03:16:20;;;;;;;7.65;1.60;;;7.30;99.90;;;;;;4980602;28;20038;-83
2022/02/20 03:18:45;;;;;;;8.52;1.70;;;7.40;99.90;;;;;;4984824;28;20026;-82
2022/02/20 03:21:11;;;;;;;7.93;2.20;;;7.30;99.90;;;;;;5011119;28;20030;-80
2022/02/20 03:23:36;;;;;;;7.03;1.88;;;7.30;99.90;;;;;;4988307;28;20033;-84
2022/02/20 03:26:03;;;;;;;10.30;2.03;;;7.30;99.90;;;;;;4995912;28;20125;-81
2022/02/20 03:28:28;;;;;;;8.07;1.92;;;7.30;99.90;;;;;;4990602;28;20124;-79
2022/02/20 03:30:54;;;;;;;6.47;1.88;;;7.40;99.90;;;;;;5012721;28;20456;-82
2022/02/20 03:33:21;;;;;;;7.32;1.95;;;7.50;99.90;;;;;;5011231;28;20033;-81
2022/02/20 03:35:47;;;;;;;5.43;1.42;;;7.40;99.90;;;;;;4994878;28;20113;-83
2022/02/20 03:38:14;;;;;;;6.72;1.20;;;;;;;;;;5017002;28;20037;-82
2022/02/20 03:40:39;;;;;;;8.27;2.63;;;7.30;99.90;;;;;;5000487;28;20648;-81
2022/02/20 03:43:05;;;;;;;4.50;1.33;;;7.40;99.90;;;;;;5016753;28;20096;-82
2022/02/20 03:45:31;;;;;;;4.63;1.45;;;7.40;99.90;;;;;;4992964;28;20037;-81
2022/02/20 03:47:58;;;;;;;6.95;1.77;;;7.30;99.90;;;;;;4987957;28;20076;-80
2022/02/20 03:50:26;;;;;;;3.55;1.17;;;7.40;99.90;;;;;;4990413;28;20117;-83
2022/02/20 03:52:52;;;;;;;6.40;1.50;;;7.60;99.90;;;;;;4985221;28;20579;-82
2022/02/20 03:55:18;;;;;;;7.18;1.77;;;7.50;99.90;;;;;;4964747;28;20214;-86
2022/02/20 03:57:45;;;;;;;8.63;2.45;;;7.40;99.90;;;;;;4970758;28;20033;-82
2022/02/20 04:00:13;;;;;;;8.57;1.95;;;7.40;99.90;;;;;;4996413;28;20055;-82
2022/02/20 04:02:40;;;;;;;5.32;1.50;;;7.40;99.90;;;;;;4990655;28;20038;-79
2022/02/20 04:05:07;;;;;;;8.13;2.63;;;7.70;99.90;;;;;;4990958;28;20396;-82
2022/02/20 04:07:34;;;;;;;4.43;1.63;;;7.60;99.90;;;;;;4986680;28;20304;-84
2022/02/20 04:10:00;;;;;;;9.35;1.60;;;7.50;99.90;;;;;;4998245;28;20034;-84
2022/02/20 04:12:26;;;;;;;5.68;1.50;;;7.40;99.90;;;;;;4998458;28;20040;-83
2022/02/20 04:14:52;;;;;;;9.15;1.40;;;7.50;99.90;;;;;;5015330;28;20029;-81
2022/02/20 04:17:20;;;;;;;5.38;1.30;;;7.30;99.90;;;;;;4989017;28;20026;-81
2022/02/20 04:19:46;;;;;;;9.93;1.70;;;7.30;99.90;;;;;;5008534;28;20624;-83
2022/02/20 04:22:12;;;;;;;5.28;1.67;;;8.30;99.90;;;;;;4974892;28;20022;-82
2022/02/20 04:24:38;;;;;;;5.93;2.05;;;8.30;99.90;;;;;;4981776;28;20609;-83
2022/02/20 04:27:03;;;;;;;4.72;1.30;;;7.30;99.90;;;;;;4966251;28;21271;-83
2022/02/20 04:29:29;;;;;;;5.30;1.42;;;7.30;99.90;;;;;;4988535;28;20034;-83
2022/02/20 04:31:54;;;;;;;6.43;1.38;;;7.30;99.90;;;;;;4973949;28;20168;-83
2022/02/20 04:34:20;;;;;;;7.38;1.30;;;7.30;99.90;;;;;;4970198;28;20030;-84
2022/02/20 04:36:46;;;;;;;5.40;1.05;;;7.30;99.90;;;;;;4970192;28;20396;-83
2022/02/20 04:39:12;;;;;;;6.68;1.55;;;;;;;;;;4949096;28;21135;-84
2022/02/20 04:41:37;;;;;;;4.03;1.13;;;7.20;99.90;;;;;;4970155;28;20073;-85
2022/02/20 04:44:03;;;;;;;11.20;1.73;;;9.60;99.90;;;;;;4952987;28;20045;-84
2022/02/20 04:46:31;;;;;;;5.78;1.25;;;7.10;99.90;;;;;;4983716;28;20038;-85
2022/02/20 04:48:56;;;;;;;4.95;1.40;;;7.20;99.90;;;;;;4978177;28;20981;-84
2022/02/20 04:51:22;;;;;;;5.00;1.88;;;7.10;99.90;;;;;;4976753;28;20041;-85
2022/02/20 04:53:47;;;;;;;5.55;1.23;;;7.20;99.90;;;;;;4967827;28;20046;-85
2022/02/20 04:56:13;;;;;;;5.65;1.20;;;7.10;99.90;;;;;;4983244;28;20044;-84
2022/02/20 04:58:39;;;;;;;6.13;1.30;;;9.70;99.90;;;;;;4965577;28;20487;-80
2022/02/20 05:01:04;;;;;;;12.02;2.30;;;7.10;99.90;;;;;;4964500;28;20034;-85
2022/02/20 05:03:30;;;;;;;6.75;1.70;;;7.00;99.90;;;;;;4968769;28;20040;-83
2022/02/20 05:05:55;;;;;;;5.38;1.40;;;7.00;99.90;;;;;;4970783;28;20091;-84
2022/02/20 05:08:22;;;;;;;4.40;1.40;;;7.10;99.90;;;;;;4973255;28;20112;-83
2022/02/20 05:10:47;;;;;;;9.52;2.15;;;7.20;99.90;;;;;;4998800;28;20022;-82
2022/02/20 05:13:13;;;;;;;4.32;1.35;;;7.20;99.90;;;;;;4999784;28;20053;-81
2022/02/20 05:15:38;;;;;;;6.35;1.40;;;7.20;99.90;;;;;;5014801;28;20029;-79
2022/02/20 05:18:04;;;;;;;8.20;1.83;;;7.10;99.90;;;;;;4998974;28;20072;-83
2022/02/20 05:20:30;;;;;;;7.75;1.42;;;7.20;99.90;;;;;;4999779;28;20404;-82
2022/02/20 05:22:55;;;;;;;4.72;1.50;;;7.20;99.90;;;;;;4998576;28;20061;-84
2022/02/20 05:25:21;;;;;;;5.25;1.52;;;8.60;99.90;;;;;;4995570;28;20468;-83
2022/02/20 05:27:46;;;;;;;5.63;1.52;;;7.30;99.90;;;;;;4996846;28;20362;-78
2022/02/20 05:30:13;;;;;;;6.13;1.60;;;7.20;99.90;;;;;;4996531;28;20120;-80
2022/02/20 05:32:39;;;;;;;5.55;1.38;;;7.20;99.90;;;;;;4994010;28;20065;-78
2022/02/20 05:35:08;;;;;;;8.85;2.08;;;9.50;99.90;;;;;;5002766;28;20097;-80
2022/02/20 05:37:45;;;;;;;6.93;1.42;;;7.30;99.90;;;;;;5008800;28;20017;-81
2022/02/20 05:40:14;;;;;;;4.85;1.48;;;7.30;99.90;;;;;;5021264;28;20029;-79
2022/02/20 05:42:40;;;;;;;5.80;1.30;;;7.30;99.90;;;;;;5022125;28;20091;-81
2022/02/20 05:45:06;;;;;;;6.47;1.48;;;7.30;99.90;;;;;;5021801;28;20038;-78
2022/02/20 05:47:32;;;;;;;7.88;1.40;;;7.40;99.90;;;;;;4998516;28;20037;-79
2022/02/20 05:49:58;;;;;;;7.57;1.55;;;7.40;99.90;;;;;;5009516;28;20121;-82
2022/02/20 05:52:23;;;;;;;5.57;1.35;;;8.10;99.90;;;;;;5017438;28;20038;-83
2022/02/20 05:54:49;;;;;;;3.80;1.05;;;7.40;99.90;;;;;;5013887;28;20030;-80
2022/02/20 05:57:15;;;;;;;5.35;1.55;;;7.40;99.90;;;;;;4995989;28;20053;-82
2022/02/20 05:59:40;;;;;;;6.03;1.40;;;7.40;99.90;;;;;;5007064;28;20389;-80
2022/02/20 06:02:06;;;;;;;5.13;1.48;;;7.40;99.90;;;;;;4992144;28;20029;-81
2022/02/20 06:04:32;;;;;;;6.88;1.55;;;7.40;99.90;;;;;;5003481;28;20026;-80
2022/02/20 06:06:57;;;;;;;2.63;1.30;;;7.40;99.90;;;;;;4995445;28;20103;-82
2022/02/20 06:09:23;;;;;;;6.97;1.50;;;7.40;99.90;;;;;;5006104;28;20041;-81
2022/02/20 06:11:48;;;;;;;5.40;1.52;;;7.30;99.90;;;;;;5023501;28;20113;-82
2022/02/20 06:14:14;;;;;;;8.93;1.50;;;7.40;99.90;;;;;;4996520;28;20376;-84
2022/02/20 06:16:40;;;;;;;2.75;1.25;;;7.40;99.90;;;;;;4999590;28;20044;-82
2022/02/20 06:19:05;;;;;;;3.72;1.20;;;7.40;99.90;;;;;;5000378;28;20028;-81
2022/02/20 06:21:31;;;;;;;6.25;1.10;;;7.50;99.90;;;;;;5016779;28;20018;-81
2022/02/20 06:23:57;;;;;;;5.65;1.63;;;;;;;;;;4996668;28;20025;-83
2022/02/20 06:26:22;;;;;;;6.68;1.67;;;7.70;99.90;;;;;;4998871;28;20026;-81
2022/02/20 06:28:48;;;;;;;3.63;1.50;;;7.70;99.90;;;;;;5003023;28;20125;-81
2022/02/20 06:31:14;;;;;;;6.05;1.85;;;7.80;99.90;;;;;;5021919;28;20022;-82
2022/02/20 06:33:39;;;;;;;4.53;1.20;;;7.70;99.90;;;;;;5017742;28;20065;-80
2022/02/20 06:36:07;;;;;;;4.70;1.65;;;7.60;99.90;;;;;;5016237;28;20049;-79
2022/02/20 06:38:32;;;;;;;8.63;1.42;;;7.70;99.90;;;;;;5001249;28;20291;-81
2022/02/20 06:40:58;;;;;;;5.18;1.33;;;7.70;99.90;;;;;;5012029;28;20115;-84
2022/02/20 06:43:24;;;;;;;6.25;2.10;;;7.80;99.90;;;;;;5003850;28;20049;-82
2022/02/20 06:45:49;;;;;;;8.10;1.95;;;7.70;99.90;;;;;;5005337;28;20495;-82
2022/02/20 06:48:15;;;;;;;12.70;1.88;;;9.60;99.90;;;;;;4999277;28;20128;-81
2022/02/20 06:50:41;;;;;;;5.50;1.42;;;7.70;99.90;;;;;;4999724;28;20029;-80
2022/02/20 06:53:09;;;;;;;8.60;1.70;;;9.00;99.90;;;;;;4993012;28;20359;-80
2022/02/20 06:55:34;;;;;;;4.75;1.40;;;7.60;99.90;;;;;;5001062;28;20030;-82
2022/02/20 06:58:03;;;;;;;4.35;1.30;;;7.60;99.90;;;;;;5004862;28;20056;-81
2022/02/20 07:00:28;;;;;;;6.85;1.45;;;7.60;99.90;;;;;;4999567;28;20022;-85
2022/02/20 07:02:54;;;;;;;5.55;1.23;;;7.70;99.90;;;;;;5003292;28;20044;-84
2022/02/20 07:05:20;;;;;;;7.55;1.58;;;7.70;99.90;;;;;;5005926;28;20488;-81
2022/02/20 07:07:45;;;;;;;7.05;1.45;;;7.60;99.90;;;;;;5022057;28;20033;-81
2022/02/20 07:10:11;;;;;;;5.45;1.50;;;7.60;99.90;;;;;;4998448;28;20033;-81
2022/02/20 07:12:38;;;;;;;2.65;1.20;;;7.60;99.90;;;;;;4999308;28;20124;-83
2022/02/20 07:15:04;;;;;;;4.57;1.38;;;7.70;99.90;;;;;;4999628;28;20041;-80
2022/02/20 07:17:30;;;;;;;5.35;1.25;;;7.70;99.90;;;;;;5005731;28;20081;-83
2022/02/20 07:19:57;;;;;;;6.32;1.50;;;7.60;99.90;;;;;;4992579;28;20053;-83
2022/02/20 07:22:22;;;;;;;4.50;1.27;;;7.60;99.90;;;;;;5011734;28;20029;-83
2022/02/20 07:24:48;;;;;;;5.30;1.30;;;7.80;99.90;;;;;;5000865;28;20029;-81
2022/02/20 07:27:17;;;;;;;4.72;1.10;;;;;;;;;;5001921;28;20528;-79
2022/02/20 07:29:45;;;;;;;3.22;1.10;;;7.70;99.90;;;;;;5010850;28;20506;-83
2022/02/20 07:32:14;;;;;;;6.55;1.00;;;;;;;;;;4994957;28;20064;-82
2022/02/20 07:34:42;;;;;;;5.80;1.55;;;7.70;99.90;;;;;;4992100;28;20037;-82
2022/02/20 07:37:08;;;;;;;4.80;1.08;;;7.80;99.90;;;;;;5003066;28;20080;-81
2022/02/20 07:39:34;;;;;;;4.75;0.98;;;7.80;99.90;;;;;;5000598;28;20026;-79
2022/02/20 07:41:59;;;;;;;3.05;1.00;;;8.00;99.90;;;;;;5001692;28;20117;-81
2022/02/20 07:44:25;;;;;;;2.72;0.90;;;;;;;;;;4997341;28;20454;-81
2022/02/20 07:46:51;;;;;;;4.63;0.90;;;8.00;99.90;;;;;;5017419;28;20033;-83
2022/02/20 07:49:17;;;;;;;2.58;0.90;;;7.90;99.90;;;;;;5013693;28;20056;-84
2022/02/20 07:51:43;;;;;;;2.88;1.20;;;8.00;99.90;;;;;;5008984;28;20060;-80
2022/02/20 07:54:09;;;;;;;1.55;0.90;;;7.80;99.90;;;;;;4998709;28;20479;-80
2022/02/20 07:56:34;;;;;;;5.72;1.33;;;7.90;99.90;;;;;;4993389;28;20082;-79
2022/02/20 07:59:00;;;;;;;6.57;1.27;;;7.80;99.90;;;;;;4999257;28;20053;-83
2022/02/20 08:01:26;;;;;;;3.45;1.20;;;7.90;99.90;;;;;;4998200;28;20389;-81
2022/02/20 08:03:51;;;;;;;7.32;1.98;;;7.90;99.90;;;;;;5015035;28;20018;-80
2022/02/20 08:06:17;;;;;;;4.30;1.17;;;8.00;99.90;;;;;;5001138;28;20041;-78
2022/02/20 08:08:43;;;;;;;4.60;1.50;;;9.20;99.90;;;;;;5009019;28;20129;-81
2022/02/20 08:11:08;;;;;;;2.53;1.02;;;8.00;99.90;;;;;;5026328;28;20391;-79
2022/02/20 08:13:34;;;;;;;5.03;1.10;;;7.90;99.90;;;;;;4995176;28;20105;-78
2022/02/20 08:16:00;;;;;;;1.83;0.90;;;8.00;99.90;;;;;;4996061;28;20026;-78
2022/02/20 08:18:26;;;;;;;3.15;1.08;;;8.10;99.90;;;;;;4999992;28;20029;-80
2022/02/20 08:20:53;;;;;;;5.38;1.15;;;8.00;99.90;;;;;;5019906;28;20026;-82
2022/02/20 08:23:18;;;;;;;3.35;1.17;;;8.00;99.90;;;;;;5009510;28;20032;-81
2022/02/20 08:25:45;;;;;;;2.00;0.93;;;7.90;99.90;;;;;;5000390;28;20034;-82
2022/02/20 08:28:11;;;;;;;4.28;1.20;;;8.00;99.90;;;;;;5005799;28;20018;-80
2022/02/20 08:30:36;;;;;;;5.20;1.30;;;8.00;99.90;;;;;;5013060;28;20085;-81
2022/02/20 08:33:03;;;;;;;3.92;1.05;;;7.90;99.90;;;;;;5017275;28;20265;-79
2022/02/20 08:35:29;;;;;;;5.78;1.25;;;8.20;99.90;;;;;;5000836;28;20079;-79
2022/02/20 08:37:55;;;;;;;8.02;1.58;;;7.90;99.90;;;;;;4991411;28;20029;-81
2022/02/20 08:40:20;;;;;;;4.18;1.02;;;7.90;99.90;;;;;;5006191;28;20371;-83
2022/02/20 08:42:47;;;;;;;6.90;1.33;;;8.00;99.90;;;;;;5012575;28;20502;-81
2022/02/20 08:45:14;;;;;;;6.03;1.45;;;8.10;99.90;;;;;;5001415;28;20026;-79
2022/02/20 08:47:40;;;;;;;4.35;1.20;;;8.10;99.90;;;;;;4997340;28;20037;-80
2022/02/20 08:50:09;;;;;;;6.60;1.35;;;8.10;99.90;;;;;;4985461;28;20101;-80
2022/02/20 08:52:35;;;;;;;4.80;1.23;;;8.20;99.90;;;;;;5014272;28;20025;-81
2022/02/20 08:55:01;;;;;;;6.22;1.10;;;8.20;99.90;;;;;;5015352;28;20057;-83
2022/02/20 08:57:27;;;;;;;5.00;1.10;;;8.30;99.90;;;;;;5005036;28;20030;-81
2022/02/20 08:59:54;;;;;;;5.43;1.63;;;8.40;99.90;;;;;;4992697;28;20017;-81
2022/02/20 09:02:20;;;;;;;3.80;1.10;;;8.50;99.90;;;;;;4979815;28;20116;-81
2022/02/20 09:04:46;;;;;;;6.50;1.95;;;8.40;99.90;;;;;;4995582;28;20117;-81
2022/02/20 09:07:12;;;;;;;5.63;1.73;;;8.30;99.90;;;;;;4973020;28;20149;-80
2022/02/20 09:09:38;;;;;;;6.05;2.63;;;9.10;99.90;;;;;;4972976;28;20195;-80
2022/02/20 09:12:04;;;;;;;9.15;2.80;;;8.20;99.90;;;;;;4982351;28;20288;-78
2022/02/20 09:14:30;;;;;;;7.60;2.70;;;8.10;99.90;;;;;;4980101;28;20287;-81
2022/02/20 09:16:56;;;;;;;5.30;3.05;;;8.10;99.90;;;;;;4981722;28;20033;-79
2022/02/20 09:19:21;;;;;;;7.45;2.92;;;8.20;99.90;;;;;;4965702;28;20038;-84
2022/02/20 09:21:47;;;;;;;11.40;3.95;;;8.10;99.90;;;;;;4966465;28;20327;-83
2022/02/20 09:24:13;;;;;;;9.02;3.72;;;8.00;99.90;;;;;;4984680;28;20800;-80
2022/02/20 09:26:38;;;;;;;9.63;3.08;;;8.00;99.90;;;;;;4997242;28;20659;-79
2022/02/20 09:29:04;;;;;;;14.30;3.90;;;8.00;99.90;;;;;;4975567;28;20048;-84
2022/02/20 09:31:29;;;;;;;9.07;4.10;;;8.00;99.90;;;;;;5011999;28;20038;-78
2022/02/20 09:33:55;;;;;;;6.90;3.20;;;7.90;99.90;;;;;;4994732;28;20022;-82
2022/02/20 09:36:21;;;;;;;7.75;3.13;;;8.00;99.90;;;;;;4982029;28;20037;-80
2022/02/20 09:38:46;;;;;;;7.47;3.28;;;8.00;99.90;;;;;;4978813;28;20391;-82
2022/02/20 09:41:13;;;;;;;7.82;3.25;;;7.90;99.90;;;;;;4971882;28;20171;-82
2022/02/20 09:43:40;;;;;;;8.52;3.53;;;7.90;99.90;;;;;;4992657;28;20026;-81
2022/02/20 09:46:07;;;;;;;8.10;4.65;;;7.80;99.90;;;;;;4995602;28;20026;-80
2022/02/20 09:48:33;;;;;;;9.70;4.90;;;7.80;99.90;;;;;;4999844;28;20033;-85
2022/02/20 09:51:01;;;;;;;9.40;4.28;;;7.70;99.90;;;;;;5006520;28;20137;-83
2022/02/20 09:53:28;;;;;;;7.22;4.82;;;7.70;99.90;;;;;;4998907;28;20030;-83
2022/02/20 09:55:54;;;;;;;6.78;3.97;;;7.70;99.90;;;;;;4975821;28;20858;-84
2022/02/20 09:58:20;;;;;;;9.77;4.75;;;7.70;99.90;;;;;;5000257;28;20040;-81
2022/02/20 10:01:06;;;;;;;7.88;3.50;;;8.00;99.90;;;;;;5008470;28;20037;-82
2022/02/20 10:03:37;;;;;;;6.20;3.42;;;7.90;99.90;;;;;;4977610;28;20103;-81
2022/02/20 10:06:05;;;;;;;7.43;3.20;;;7.90;99.90;;;;;;4980675;28;20061;-80
2022/02/20 10:08:43;;;;;;;6.55;3.00;;;7.90;99.90;;;;;;4971888;28;20805;-82
2022/02/20 10:11:25;;;;;;;5.70;3.25;;;7.90;99.90;;;;;;5003173;28;20141;-84
2022/02/20 10:13:53;;;;;;;6.28;2.88;;;7.80;99.90;;;;;;5004465;28;20669;-82
2022/02/20 10:16:27;;;;;;;4.95;3.00;;;7.80;99.90;;;;;;5014496;28;20534;-83
2022/02/20 10:18:55;;;;;;;3.95;2.17;;;7.90;99.90;;;;;;4999301;28;20026;-86
2022/02/20 10:21:25;;;;;;;6.57;3.00;;;7.80;99.90;;;;;;4991521;28;20026;-81
2022/02/20 10:23:52;;;;;;;3.28;2.20;;;7.70;99.90;;;;;;4972653;28;20115;-82
2022/02/20 10:26:21;;;;;;;3.42;2.03;;;10.00;99.90;;;;;;4992271;28;20048;-83
2022/02/20 10:29:07;;;;;;;2.88;1.88;;;7.60;99.90;;;;;;4982856;28;20034;-85
2022/02/20 10:31:40;;;;;;;3.13;1.70;;;7.60;99.90;;;;;;5011237;28;20026;-85
2022/02/20 10:34:09;;;;;;;4.63;1.85;;;7.70;99.90;;;;;;4962041;28;20585;-85
2022/02/20 10:37:07;;;;;;;2.85;1.80;;;7.60;99.90;;;;;;5004799;28;20373;-81
2022/02/20 10:39:39;;;;;;;3.72;1.45;;;7.50;99.90;;;;;;4977412;28;20050;-84
2022/02/20 10:42:19;;;;;;;3.58;1.77;;;7.60;99.90;;;;;;4955424;28;20030;-87
2022/02/20 10:45:00;;;;;;;2.67;1.50;;;7.60;99.90;;;;;;4973603;28;20555;-83
2022/02/20 10:47:30;;;;;;;2.38;1.20;;;7.50;99.90;;;;;;4970538;28;20041;-82
2022/02/20 10:50:17;;;;;;;2.05;1.23;;;7.50;99.90;;;;;;4977858;28;20030;-82
2022/02/20 10:52:43;;;;;;;1.63;0.90;;;7.60;99.90;;;;;;4983415;28;20061;-82
2022/02/20 10:55:13;;;;;;;1.27;1.00;;;7.60;99.90;;;;;;4975381;28;20034;-84
2022/02/20 10:57:49;;;;;;;3.30;1.20;;;7.60;99.90;;;;;;4991614;28;20037;-82
2022/02/20 11:00:20;;;;;;;1.65;1.10;;;9.00;99.90;;;;;;4990365;28;20165;-79
2022/02/20 11:02:46;;;;;;;1.75;1.10;;;7.50;99.90;;;;;;4985390;28;20034;-82
2022/02/20 11:05:12;;;;;;;1.75;1.10;;;9.20;99.90;;;;;;4981584;28;20567;-81
2022/02/20 11:07:39;;;;;;;2.15;1.20;;;7.60;99.90;;;;;;4974779;28;20128;-80
2022/02/20 11:10:10;;;;;;;3.10;1.10;;;7.60;99.90;;;;;;4970142;28;20042;-82
2022/02/20 11:12:37;;;;;;;2.35;1.20;;;7.50;99.90;;;;;;4961083;28;20056;-84
2022/02/20 11:15:04;;;;;;;2.03;1.20;;;7.50;99.90;;;;;;4994197;28;20034;-84
2022/02/20 11:17:31;;;;;;;1.70;1.17;;;7.50;99.90;;;;;;5004204;28;20033;-83
2022/02/20 11:19:58;;;;;;;1.73;1.00;;;7.50;99.90;;;;;;4981636;28;20173;-82
2022/02/20 11:22:30;;;;;;;3.67;1.30;;;7.50;99.90;;;;;;4983242;28;21045;-81
2022/02/20 11:24:58;;;;;;;2.33;0.90;;;7.40;99.90;;;;;;4999958;28;20048;-81
2022/02/20 11:27:25;;;;;;;2.45;1.05;;;7.50;99.90;;;;;;5006466;28;20033;-82
2022/02/20 11:29:51;;;;;;;2.33;1.08;;;7.60;99.90;;;;;;4986149;28;20176;-84
2022/02/20 11:32:18;;;;;;;3.10;1.45;;;7.40;99.90;;;;;;4986825;28;20682;-84
2022/02/20 11:34:45;;;;;;;1.80;0.95;;;7.40;99.90;;;;;;4989616;28;20499;-81
2022/02/20 11:37:12;;;;;;;3.55;1.17;;;7.40;99.90;;;;;;4981804;28;20113;-81
2022/02/20 11:40:00;;;;;;;2.10;1.15;;;7.50;99.90;;;;;;4999741;28;20061;-85
2022/02/20 11:42:26;;;;;;;1.67;1.00;;;7.40;99.90;;;;;;5017076;28;20129;-84
2022/02/20 11:45:06;;;;;;;1.63;1.00;;;7.40;99.90;;;;;;4995018;28;20499;-82
2022/02/20 11:47:34;;;;;;;1.92;1.20;;;7.50;99.90;;;;;;4983559;28;20229;-84
2022/02/20 11:50:15;;;;;;;2.28;1.23;;;7.40;99.90;;;;;;4980839;28;20034;-82
2022/02/20 11:52:48;;;;;;;;;;;7.30;99.90;;;;;;4988210;28;20030;-88
2022/02/20 11:55:32;;;;;;;2.65;1.33;;;7.40;99.90;;;;;;4994481;28;19945;-87
2022/02/20 11:58:23;;;;;;;3.10;1.70;;;7.40;99.90;;;;;;4995313;28;20380;-80
2022/02/20 12:00:55;;;;;;;2.80;1.77;;;7.40;99.90;;;;;;4987516;28;20030;-80
2022/02/20 12:03:25;;;;;;;2.90;2.20;;;7.50;99.90;;;;;;5006477;28;20026;-84
2022/02/20 12:06:17;;;;;;;3.45;2.20;;;7.60;99.90;;;;;;4984887;28;20026;-85
2022/02/20 12:08:50;;;;;;;3.35;2.40;;;7.60;99.90;;;;;;4999431;28;20495;-85
2022/02/20 12:11:20;;;;;;;3.30;2.40;;;7.80;99.90;;;;;;4993909;28;20029;-81
2022/02/20 12:13:53;;;;;;;4.03;2.50;;;7.80;99.90;;;;;;5012275;28;20049;-84
2022/02/20 12:16:22;;;;;;;4.05;3.05;;;7.80;99.90;;;;;;4974450;28;20128;-83
2022/02/20 12:19:14;;;;;;;5.57;2.50;;;7.80;99.90;;;;;;4980429;28;20527;-82
2022/02/20 12:22:07;;;;;;;3.67;2.28;;;7.90;99.90;;;;;;4981190;28;20025;-84
2022/02/20 12:24:42;;;;;;;6.18;2.30;;;8.00;99.90;;;;;;4983370;28;20038;-81
2022/02/20 12:27:15;;;;;;;5.63;2.40;;;8.00;99.90;;;;;;5018752;28;20034;-85
2022/02/20 12:29:52;;;;;;;5.05;2.67;;;8.00;99.90;;;;;;4997689;28;20025;-81
2022/02/20 12:32:29;;;;;;;5.30;2.80;;;8.10;99.90;;;;;;4982044;28;20056;-84
2022/02/20 12:35:01;;;;;;;4.38;2.80;;;8.20;99.90;;;;;;4982675;28;20060;-82
2022/02/20 12:37:40;;;;;;;3.75;2.80;;;8.20;99.90;;;;;;4990907;28;20041;-82
2022/02/20 12:40:10;;;;;;;5.95;3.05;;;8.20;99.90;;;;;;4988385;28;20026;-82
2022/02/20 12:42:39;;;;;;;6.03;3.15;;;8.40;99.90;;;;;;4994407;28;20025;-83
2022/02/20 12:45:11;;;;;;;3.92;2.78;;;8.20;99.90;;;;;;5002405;28;20523;-84
2022/02/20 12:47:39;;;;;;;4.95;3.53;;;8.20;99.90;;;;;;4992424;28;20030;-80
2022/02/20 12:50:08;;;;;;;5.55;3.33;;;8.30;99.90;;;;;;5012188;28;20026;-82
2022/02/20 12:52:36;;;;;;;5.25;2.85;;;8.20;99.90;;;;;;4997298;28;20444;-83
2022/02/20 12:55:02;;;;;;;5.05;3.08;;;8.30;99.90;;;;;;4992528;28;20102;-84
2022/02/20 12:57:36;;;;;;;6.13;3.53;;;8.30;99.90;;;;;;4982741;28;20034;-84
2022/02/20 13:00:07;;;;;;;4.25;2.53;;;8.30;99.90;;;;;;4983767;28;20046;-83
2022/02/20 13:02:48;;;;;;;3.83;2.65;;;8.40;99.90;;;;;;4994772;28;20049;-85